createdAt,value
2018-02-27T00:00:13.910Z,1018.76
2018-02-27T00:02:08.404Z,1018.72
2018-02-27T00:03:08.352Z,1018.70
2018-02-27T00:05:02.309Z,1018.69
2018-02-27T00:06:01.972Z,1018.72
2018-02-27T00:07:55.625Z,1018.71
2018-02-27T00:08:55.580Z,1018.70
2018-02-27T00:10:50.027Z,1018.75
2018-02-27T00:11:49.957Z,1018.74
2018-02-27T00:13:44.384Z,1018.71
2018-02-27T00:14:43.643Z,1018.68
2018-02-27T00:16:39.448Z,1018.69
2018-02-27T00:17:39.364Z,1018.64
2018-02-27T00:19:33.725Z,1018.65
2018-02-27T00:20:33.610Z,1018.68
2018-02-27T00:22:27.322Z,1018.66
2018-02-27T00:23:27.275Z,1018.67
2018-02-27T00:25:21.712Z,1018.66
2018-02-27T00:26:20.873Z,1018.64
2018-02-27T00:28:14.612Z,1018.64
2018-02-27T00:29:14.587Z,1018.68
2018-02-27T00:31:08.954Z,1018.62
2018-02-27T00:32:08.898Z,1018.57
2018-02-27T00:34:02.606Z,1018.62
2018-02-27T00:35:02.625Z,1018.65
2018-02-27T00:36:57.000Z,1018.62
2018-02-27T00:37:56.259Z,1018.61
2018-02-27T00:39:50.674Z,1018.55
2018-02-27T00:40:49.899Z,1018.60
2018-02-27T00:42:43.928Z,1018.59
2018-02-27T00:43:43.552Z,1018.59
2018-02-27T00:45:37.265Z,1018.60
2018-02-27T00:46:37.170Z,1018.62
2018-02-27T00:48:30.774Z,1018.57
2018-02-27T00:49:30.706Z,1018.56
2018-02-27T00:51:26.128Z,1018.56
2018-02-27T00:52:25.484Z,1018.54
2018-02-27T00:54:19.233Z,1018.51
2018-02-27T00:55:19.565Z,1018.51
2018-02-27T00:57:12.861Z,1018.52
2018-02-27T00:58:12.851Z,1018.46
2018-02-27T01:00:08.777Z,1018.50
2018-02-27T01:01:07.721Z,1018.48
2018-02-27T01:03:01.380Z,1018.45
2018-02-27T01:04:01.282Z,1018.39
2018-02-27T01:05:54.959Z,1018.38
2018-02-27T01:06:54.892Z,1018.39
2018-02-27T01:08:49.872Z,1018.38
2018-02-27T01:09:48.481Z,1018.36
2018-02-27T01:11:42.238Z,1018.37
2018-02-27T01:12:42.120Z,1018.39
2018-02-27T01:14:35.813Z,1018.40
2018-02-27T01:15:35.738Z,1018.45
2018-02-27T01:17:29.677Z,1018.39
2018-02-27T01:18:29.436Z,1018.40
2018-02-27T01:20:23.263Z,1018.41
2018-02-27T01:21:23.130Z,1018.41
2018-02-27T01:23:17.540Z,1018.36
2018-02-27T01:24:16.750Z,1018.35
2018-02-27T01:26:11.620Z,1018.35
2018-02-27T01:27:11.582Z,1018.33
2018-02-27T01:29:06.178Z,1018.34
2018-02-27T01:30:06.137Z,1018.31
2018-02-27T01:32:00.273Z,1018.30
2018-02-27T01:33:00.200Z,1018.30
2018-02-27T01:34:53.859Z,1018.30
2018-02-27T01:35:53.812Z,1018.27
2018-02-27T01:37:47.553Z,1018.27
2018-02-27T01:38:47.408Z,1018.27
2018-02-27T01:40:40.977Z,1018.23
2018-02-27T01:41:40.929Z,1018.19
2018-02-27T01:43:35.664Z,1018.16
2018-02-27T01:44:34.550Z,1018.17
2018-02-27T01:46:29.232Z,1018.15
2018-02-27T01:47:29.203Z,1018.12
2018-02-27T01:49:22.900Z,1018.13
2018-02-27T01:50:22.860Z,1018.10
2018-02-27T01:52:17.240Z,1018.08
2018-02-27T01:53:17.229Z,1018.06
2018-02-27T01:55:11.563Z,1018.09
2018-02-27T01:56:11.508Z,1018.09
2018-02-27T01:58:07.439Z,1018.06
2018-02-27T01:59:06.675Z,1018.07
2018-02-27T02:01:00.951Z,1018.07
2018-02-27T02:02:00.866Z,1018.09
2018-02-27T02:03:55.977Z,1018.09
2018-02-27T02:04:55.864Z,1018.06
2018-02-27T02:06:49.703Z,1018.04
2018-02-27T02:07:49.615Z,1017.99
2018-02-27T02:09:44.550Z,1017.98
2018-02-27T02:10:44.355Z,1017.98
2018-02-27T02:12:38.107Z,1017.95
2018-02-27T02:13:38.009Z,1017.93
2018-02-27T02:15:31.588Z,1017.92
2018-02-27T02:16:40.526Z,1017.89
2018-02-27T02:18:25.301Z,1017.86
2018-02-27T02:19:25.246Z,1017.89
2018-02-27T02:21:19.023Z,1017.85
2018-02-27T02:22:18.878Z,1017.88
2018-02-27T02:24:13.162Z,1017.80
2018-02-27T02:25:13.101Z,1017.77
2018-02-27T02:27:08.016Z,1017.79
2018-02-27T02:28:07.116Z,1017.75
2018-02-27T02:30:00.867Z,1017.76
2018-02-27T02:31:00.812Z,1017.73
2018-02-27T02:32:54.456Z,1017.72
2018-02-27T02:33:54.423Z,1017.68
2018-02-27T02:35:48.182Z,1017.67
2018-02-27T02:36:48.068Z,1017.63
2018-02-27T02:38:42.115Z,1017.62
2018-02-27T02:39:41.681Z,1017.60
2018-02-27T02:41:35.516Z,1017.61
2018-02-27T02:42:35.382Z,1017.65
2018-02-27T02:44:31.833Z,1017.62
2018-02-27T02:45:30.062Z,1017.63
2018-02-27T02:47:24.651Z,1017.60
2018-02-27T02:48:24.629Z,1017.53
2018-02-27T02:50:18.299Z,1017.54
2018-02-27T02:51:18.254Z,1017.52
2018-02-27T02:53:13.162Z,1017.50
2018-02-27T02:54:13.074Z,1017.49
2018-02-27T02:56:07.024Z,1017.45
2018-02-27T02:57:06.963Z,1017.50
2018-02-27T02:59:01.382Z,1017.48
2018-02-27T03:00:01.287Z,1017.48
2018-02-27T03:01:55.799Z,1017.45
2018-02-27T03:02:55.102Z,1017.41
2018-02-27T03:04:49.509Z,1017.45
2018-02-27T03:05:48.617Z,1017.47
2018-02-27T03:07:42.353Z,1017.50
2018-02-27T03:08:42.176Z,1017.47
2018-02-27T03:10:36.583Z,1017.44
2018-02-27T03:11:35.939Z,1017.43
2018-02-27T03:13:30.363Z,1017.43
2018-02-27T03:14:29.599Z,1017.39
2018-02-27T03:16:23.187Z,1017.31
2018-02-27T03:17:23.159Z,1017.31
2018-02-27T03:19:17.269Z,1017.32
2018-02-27T03:20:17.238Z,1017.27
2018-02-27T03:22:12.401Z,1017.27
2018-02-27T03:23:12.398Z,1017.29
2018-02-27T03:25:07.297Z,1017.27
2018-02-27T03:26:06.276Z,1017.30
2018-02-27T03:28:00.217Z,1017.22
2018-02-27T03:29:00.134Z,1017.24
2018-02-27T03:30:54.565Z,1017.20
2018-02-27T03:31:53.852Z,1017.20
2018-02-27T03:33:48.325Z,1017.23
2018-02-27T03:34:47.394Z,1017.22
2018-02-27T03:38:38.834Z,1017.20
2018-02-27T03:39:14.810Z,1017.20
2018-02-27T03:41:09.239Z,1017.23
2018-02-27T03:42:08.484Z,1017.21
2018-02-27T03:44:02.071Z,1017.14
2018-02-27T03:45:01.981Z,1017.17
2018-02-27T03:46:55.731Z,1017.14
2018-02-27T03:47:55.682Z,1017.11
2018-02-27T03:49:50.091Z,1017.12
2018-02-27T03:50:49.325Z,1017.10
2018-02-27T03:52:43.107Z,1017.09
2018-02-27T03:53:42.928Z,1017.12
2018-02-27T03:55:36.607Z,1017.05
2018-02-27T03:56:36.461Z,1017.09
2018-02-27T03:58:30.426Z,1017.09
2018-02-27T03:59:30.274Z,1017.05
2018-02-27T04:01:23.954Z,1017.07
2018-02-27T04:02:23.891Z,1017.08
2018-02-27T04:04:18.244Z,1017.07
2018-02-27T04:05:18.191Z,1017.03
2018-02-27T04:07:11.786Z,1017.08
2018-02-27T04:08:11.748Z,1017.05
2018-02-27T04:10:06.851Z,1017.06
2018-02-27T04:11:06.784Z,1017.03
2018-02-27T04:13:01.273Z,1017.00
2018-02-27T04:14:00.813Z,1017.03
2018-02-27T04:15:54.550Z,1016.98
2018-02-27T04:16:54.439Z,1017.04
2018-02-27T04:18:48.400Z,1017.05
2018-02-27T04:19:48.100Z,1017.03
2018-02-27T04:21:43.526Z,1017.03
2018-02-27T04:22:42.743Z,1017.03
2018-02-27T04:24:37.686Z,1017.04
2018-02-27T04:25:37.032Z,1017.01
2018-02-27T04:26:37.002Z,1017.03
2018-02-27T04:27:36.991Z,1017.03
2018-02-27T04:28:36.964Z,1017.02
2018-02-27T04:29:36.959Z,1016.99
2018-02-27T04:30:36.956Z,1016.99
2018-02-27T04:31:36.916Z,1016.96
2018-02-27T04:32:36.893Z,1016.97
2018-02-27T04:33:36.887Z,1016.97
2018-02-27T04:34:36.871Z,1016.98
2018-02-27T04:35:36.846Z,1017.02
2018-02-27T04:36:36.844Z,1016.99
2018-02-27T04:37:36.825Z,1016.97
2018-02-27T04:38:36.787Z,1016.96
2018-02-27T04:39:36.788Z,1016.95
2018-02-27T04:40:36.750Z,1016.94
2018-02-27T04:41:36.733Z,1017.00
2018-02-27T04:42:36.726Z,1016.97
2018-02-27T04:43:36.712Z,1016.96
2018-02-27T04:44:36.680Z,1016.96
2018-02-27T04:45:36.679Z,1016.98
2018-02-27T04:46:36.650Z,1016.98
2018-02-27T04:47:36.626Z,1017.03
2018-02-27T04:48:36.647Z,1017.00
2018-02-27T04:49:36.590Z,1017.11
2018-02-27T04:50:36.584Z,1017.06
2018-02-27T04:51:36.564Z,1017.12
2018-02-27T04:52:36.550Z,1017.09
2018-02-27T04:53:36.567Z,1017.15
2018-02-27T04:54:36.502Z,1017.16
2018-02-27T04:55:36.497Z,1017.06
2018-02-27T04:56:36.478Z,1017.08
2018-02-27T04:57:36.457Z,1017.11
2018-02-27T04:58:36.439Z,1017.11
2018-02-27T04:59:36.434Z,1017.08
2018-02-27T05:00:36.393Z,1017.12
2018-02-27T05:01:36.384Z,1017.09
2018-02-27T05:02:36.372Z,1017.11
2018-02-27T05:03:36.343Z,1017.10
2018-02-27T05:04:36.323Z,1017.08
2018-02-27T05:05:36.331Z,1017.09
2018-02-27T05:06:36.292Z,1017.04
2018-02-27T05:07:36.276Z,1017.06
2018-02-27T05:08:36.267Z,1017.06
2018-02-27T05:09:36.252Z,1017.06
2018-02-27T05:10:36.220Z,1017.05
2018-02-27T05:11:36.196Z,1017.06
2018-02-27T05:12:36.178Z,1017.09
2018-02-27T05:13:36.180Z,1017.07
2018-02-27T05:14:36.155Z,1017.04
2018-02-27T05:15:36.131Z,1017.04
2018-02-27T05:16:36.112Z,1017.10
2018-02-27T05:17:36.102Z,1017.04
2018-02-27T05:18:36.093Z,1017.04
2018-02-27T05:19:36.068Z,1017.04
2018-02-27T05:20:36.076Z,1017.04
2018-02-27T05:21:36.040Z,1017.01
2018-02-27T05:22:36.003Z,1017.07
2018-02-27T05:23:35.985Z,1017.06
2018-02-27T05:24:35.968Z,1017.04
2018-02-27T05:25:35.964Z,1017.02
2018-02-27T05:26:35.933Z,1017.01
2018-02-27T05:27:35.930Z,1016.98
2018-02-27T05:28:35.908Z,1016.95
2018-02-27T05:29:35.896Z,1016.95
2018-02-27T05:30:35.870Z,1016.96
2018-02-27T05:31:35.849Z,1016.98
2018-02-27T05:32:35.833Z,1016.98
2018-02-27T05:33:35.816Z,1016.99
2018-02-27T05:34:35.830Z,1016.96
2018-02-27T05:35:45.717Z,1016.97
2018-02-27T05:37:29.857Z,1016.94
2018-02-27T05:38:29.483Z,1016.92
2018-02-27T05:40:23.192Z,1016.96
2018-02-27T05:41:23.079Z,1016.96
2018-02-27T05:43:17.429Z,1016.95
2018-02-27T05:44:17.371Z,1016.89
2018-02-27T05:46:11.787Z,1016.94
2018-02-27T05:47:11.692Z,1016.93
2018-02-27T05:49:06.228Z,1016.87
2018-02-27T05:50:06.190Z,1016.86
2018-02-27T05:51:59.916Z,1016.91
2018-02-27T05:52:59.843Z,1016.87
2018-02-27T05:54:54.169Z,1016.96
2018-02-27T05:55:54.041Z,1016.99
2018-02-27T05:57:47.687Z,1017.00
2018-02-27T05:58:47.587Z,1016.95
2018-02-27T06:00:41.237Z,1017.00
2018-02-27T06:01:41.186Z,1016.93
2018-02-27T06:03:35.385Z,1017.02
2018-02-27T06:04:34.852Z,1016.99
2018-02-27T06:06:28.502Z,1017.03
2018-02-27T06:07:28.468Z,1017.06
2018-02-27T06:09:22.182Z,1017.10
2018-02-27T06:10:22.012Z,1017.11
2018-02-27T06:12:15.683Z,1017.12
2018-02-27T06:13:15.660Z,1017.12
2018-02-27T06:15:10.096Z,1017.11
2018-02-27T06:16:10.051Z,1017.13
2018-02-27T06:18:03.663Z,1017.11
2018-02-27T06:19:03.620Z,1017.06
2018-02-27T06:20:57.671Z,1017.14
2018-02-27T06:21:57.592Z,1017.05
2018-02-27T06:23:51.446Z,1017.06
2018-02-27T06:24:51.364Z,1017.14
2018-02-27T06:26:50.326Z,1017.12
2018-02-27T06:27:44.967Z,1017.10
2018-02-27T06:28:44.945Z,1017.16
2018-02-27T06:29:46.018Z,1017.15
2018-02-27T06:30:44.911Z,1017.15
2018-02-27T06:31:44.898Z,1017.14
2018-02-27T06:32:55.764Z,1017.17
2018-02-27T06:33:44.857Z,1017.11
2018-02-27T06:34:44.979Z,1017.12
2018-02-27T06:35:44.900Z,1017.12
2018-02-27T06:36:45.880Z,1017.12
2018-02-27T06:37:44.896Z,1017.11
2018-02-27T06:40:14.005Z,1017.11
2018-02-27T06:41:07.944Z,1017.09
2018-02-27T06:43:01.701Z,1017.09
2018-02-27T06:44:10.389Z,1017.13
2018-02-27T06:45:55.393Z,1017.12
2018-02-27T06:46:55.345Z,1017.13
2018-02-27T06:48:49.667Z,1017.11
2018-02-27T06:49:49.645Z,1017.11
2018-02-27T06:51:43.473Z,1017.18
2018-02-27T06:52:43.332Z,1017.16
2018-02-27T06:53:43.324Z,1017.19
2018-02-27T06:54:43.308Z,1017.19
2018-02-27T06:55:43.269Z,1017.17
2018-02-27T06:56:43.253Z,1017.14
2018-02-27T06:57:43.257Z,1017.14
2018-02-27T06:58:43.234Z,1017.15
2018-02-27T06:59:43.211Z,1017.13
2018-02-27T07:00:43.182Z,1017.09
2018-02-27T07:01:43.193Z,1017.10
2018-02-27T07:02:43.160Z,1017.11
2018-02-27T07:03:43.164Z,1017.15
2018-02-27T07:04:43.125Z,1017.16
2018-02-27T07:05:43.095Z,1017.09
2018-02-27T07:06:43.081Z,1017.14
2018-02-27T07:07:43.063Z,1017.12
2018-02-27T07:08:43.095Z,1017.12
2018-02-27T07:09:43.027Z,1017.12
2018-02-27T07:10:43.064Z,1017.15
2018-02-27T07:11:43.025Z,1017.15
2018-02-27T07:12:42.977Z,1017.14
2018-02-27T07:13:42.972Z,1017.12
2018-02-27T07:14:42.945Z,1017.09
2018-02-27T07:15:43.036Z,1017.10
2018-02-27T07:16:42.905Z,1017.09
2018-02-27T07:17:42.890Z,1017.10
2018-02-27T07:18:42.877Z,1017.10
2018-02-27T07:19:42.873Z,1017.09
2018-02-27T07:20:42.837Z,1017.13
2018-02-27T07:21:42.821Z,1017.10
2018-02-27T07:22:42.808Z,1017.13
2018-02-27T07:23:42.802Z,1017.14
2018-02-27T07:24:42.822Z,1017.14
2018-02-27T07:25:42.753Z,1017.16
2018-02-27T07:26:42.742Z,1017.19
2018-02-27T07:27:42.740Z,1017.13
2018-02-27T07:28:42.725Z,1017.13
2018-02-27T07:29:42.687Z,1017.12
2018-02-27T07:30:42.667Z,1017.09
2018-02-27T07:31:42.649Z,1017.12
2018-02-27T07:32:42.633Z,1017.12
2018-02-27T07:33:42.618Z,1017.09
2018-02-27T07:34:42.597Z,1017.13
2018-02-27T07:35:42.584Z,1017.12
2018-02-27T07:36:42.576Z,1017.15
2018-02-27T07:37:42.559Z,1017.12
2018-02-27T07:38:42.543Z,1017.13
2018-02-27T07:39:42.543Z,1017.13
2018-02-27T07:40:42.497Z,1017.08
2018-02-27T07:41:42.498Z,1017.12
2018-02-27T07:42:42.500Z,1017.14
2018-02-27T07:43:42.473Z,1017.10
2018-02-27T07:44:42.446Z,1017.13
2018-02-27T07:45:42.439Z,1017.17
2018-02-27T07:46:42.396Z,1017.16
2018-02-27T07:47:42.381Z,1017.17
2018-02-27T07:48:42.369Z,1017.21
2018-02-27T07:49:42.363Z,1017.20
2018-02-27T07:50:42.333Z,1017.14
2018-02-27T07:51:42.314Z,1017.15
2018-02-27T07:52:42.298Z,1017.17
2018-02-27T07:53:42.278Z,1017.15
2018-02-27T07:54:42.282Z,1017.18
2018-02-27T07:55:42.251Z,1017.11
2018-02-27T07:56:42.249Z,1017.19
2018-02-27T07:57:42.224Z,1017.17
2018-02-27T07:58:42.213Z,1017.19
2018-02-27T07:59:42.199Z,1017.17
2018-02-27T08:00:42.178Z,1017.13
2018-02-27T08:01:42.156Z,1017.12
2018-02-27T08:02:42.134Z,1017.12
2018-02-27T08:03:42.136Z,1017.18
2018-02-27T08:04:42.107Z,1017.13
2018-02-27T08:05:42.085Z,1017.11
2018-02-27T08:06:42.091Z,1017.13
2018-02-27T08:07:42.054Z,1017.13
2018-02-27T08:08:42.053Z,1017.11
2018-02-27T08:09:42.033Z,1017.12
2018-02-27T08:10:42.007Z,1017.14
2018-02-27T08:11:41.994Z,1017.12
2018-02-27T08:12:41.978Z,1017.11
2018-02-27T08:13:41.965Z,1017.12
2018-02-27T08:14:41.956Z,1017.09
2018-02-27T08:15:41.944Z,1017.07
2018-02-27T08:16:41.927Z,1017.09
2018-02-27T08:17:41.917Z,1017.01
2018-02-27T08:18:41.879Z,1017.03
2018-02-27T08:19:41.864Z,1017.02
2018-02-27T08:20:41.855Z,1017.02
2018-02-27T08:21:41.848Z,1017.02
2018-02-27T08:22:41.823Z,1017.03
2018-02-27T08:23:41.807Z,1017.02
2018-02-27T08:24:41.800Z,1016.98
2018-02-27T08:25:41.795Z,1017.01
2018-02-27T08:26:41.769Z,1017.03
2018-02-27T08:27:41.771Z,1017.02
2018-02-27T08:28:41.736Z,1017.04
2018-02-27T08:29:41.738Z,1016.99
2018-02-27T08:30:41.705Z,1016.97
2018-02-27T08:31:41.700Z,1017.05
2018-02-27T08:32:41.671Z,1017.02
2018-02-27T08:33:41.668Z,1017.10
2018-02-27T08:34:41.656Z,1017.09
2018-02-27T08:35:41.640Z,1017.09
2018-02-27T08:36:41.610Z,1017.04
2018-02-27T08:37:41.642Z,1017.05
2018-02-27T08:38:41.585Z,1017.01
2018-02-27T08:39:41.571Z,1016.98
2018-02-27T08:40:41.576Z,1017.02
2018-02-27T08:41:41.558Z,1016.98
2018-02-27T08:42:41.536Z,1017.01
2018-02-27T08:43:41.513Z,1017.05
2018-02-27T08:44:41.509Z,1017.01
2018-02-27T08:45:41.496Z,1017.02
2018-02-27T08:46:41.513Z,1016.98
2018-02-27T08:47:41.476Z,1016.92
2018-02-27T08:48:41.455Z,1017.00
2018-02-27T08:49:41.455Z,1017.00
2018-02-27T08:50:41.449Z,1016.99
2018-02-27T08:51:50.286Z,1016.93
2018-02-27T08:53:35.211Z,1016.92
2018-02-27T08:54:43.858Z,1016.92
2018-02-27T08:56:30.035Z,1016.87
2018-02-27T08:57:28.832Z,1016.84
2018-02-27T08:59:22.448Z,1016.90
2018-02-27T09:00:22.377Z,1016.88
2018-02-27T09:02:17.255Z,1016.89
2018-02-27T09:03:16.051Z,1016.88
2018-02-27T09:05:10.485Z,1016.92
2018-02-27T09:06:10.461Z,1016.91
2018-02-27T09:08:05.262Z,1016.89
2018-02-27T09:09:05.182Z,1016.91
2018-02-27T09:10:59.161Z,1016.90
2018-02-27T09:11:58.940Z,1016.90
2018-02-27T09:13:54.391Z,1016.87
2018-02-27T09:14:53.360Z,1016.86
2018-02-27T09:16:47.025Z,1016.88
2018-02-27T09:17:47.022Z,1016.83
2018-02-27T09:19:40.793Z,1016.80
2018-02-27T09:20:40.674Z,1016.80
2018-02-27T09:22:34.455Z,1016.88
2018-02-27T09:23:34.299Z,1016.83
2018-02-27T09:25:28.056Z,1016.80
2018-02-27T09:26:28.037Z,1016.79
2018-02-27T09:28:21.774Z,1016.82
2018-02-27T09:29:21.733Z,1016.87
2018-02-27T09:31:16.160Z,1016.80
2018-02-27T09:32:15.285Z,1016.84
2018-02-27T09:34:09.443Z,1016.76
2018-02-27T09:35:09.402Z,1016.77
2018-02-27T09:37:03.069Z,1016.81
2018-02-27T09:38:03.039Z,1016.81
2018-02-27T09:39:56.843Z,1016.70
2018-02-27T09:40:56.728Z,1016.74
2018-02-27T09:42:51.154Z,1016.66
2018-02-27T09:43:50.449Z,1016.62
2018-02-27T09:45:46.886Z,1016.61
2018-02-27T09:46:44.828Z,1016.58
2018-02-27T09:48:40.248Z,1016.59
2018-02-27T09:49:39.980Z,1016.55
2018-02-27T09:51:34.281Z,1016.57
2018-02-27T09:52:34.216Z,1016.64
2018-02-27T09:54:29.020Z,1016.59
2018-02-27T09:55:29.018Z,1016.51
2018-02-27T09:57:27.951Z,1016.54
2018-02-27T09:58:27.250Z,1016.47
2018-02-27T09:59:27.217Z,1016.52
2018-02-27T10:00:27.217Z,1016.47
2018-02-27T10:01:27.179Z,1016.50
2018-02-27T10:02:27.167Z,1016.52
2018-02-27T10:03:27.158Z,1016.52
2018-02-27T10:04:27.132Z,1016.52
2018-02-27T10:05:27.147Z,1016.48
2018-02-27T10:06:27.126Z,1016.48
2018-02-27T10:07:27.120Z,1016.49
2018-02-27T10:08:27.140Z,1016.47
2018-02-27T10:09:27.134Z,1016.50
2018-02-27T10:10:27.957Z,1016.52
2018-02-27T10:11:37.391Z,1016.49
2018-02-27T10:13:21.488Z,1016.42
2018-02-27T10:14:20.798Z,1016.40
2018-02-27T10:16:14.353Z,1016.41
2018-02-27T10:17:23.449Z,1016.49
2018-02-27T10:19:08.051Z,1016.47
2018-02-27T10:20:08.029Z,1016.46
2018-02-27T10:22:02.014Z,1016.45
2018-02-27T10:23:01.713Z,1016.45
2018-02-27T10:24:55.450Z,1016.42
2018-02-27T10:25:55.416Z,1016.40
2018-02-27T10:27:49.191Z,1016.37
2018-02-27T10:28:49.152Z,1016.36
2018-02-27T10:30:45.078Z,1016.35
2018-02-27T10:31:44.076Z,1016.36
2018-02-27T10:33:37.893Z,1016.31
2018-02-27T10:34:37.786Z,1016.33
2018-02-27T10:36:32.209Z,1016.33
2018-02-27T10:37:31.530Z,1016.27
2018-02-27T10:39:25.941Z,1016.32
2018-02-27T10:40:25.096Z,1016.26
2018-02-27T10:42:19.967Z,1016.24
2018-02-27T10:43:18.820Z,1016.18
2018-02-27T10:45:12.530Z,1016.24
2018-02-27T10:46:12.504Z,1016.25
2018-02-27T10:48:07.903Z,1016.17
2018-02-27T10:49:06.947Z,1016.21
2018-02-27T10:51:00.828Z,1016.19
2018-02-27T10:52:00.822Z,1016.14
2018-02-27T10:53:55.350Z,1016.21
2018-02-27T10:54:55.253Z,1016.22
2018-02-27T10:56:48.779Z,1016.15
2018-02-27T10:57:48.756Z,1016.17
2018-02-27T10:59:42.620Z,1016.16
2018-02-27T11:00:42.451Z,1016.09
2018-02-27T11:02:36.869Z,1016.16
2018-02-27T11:03:36.184Z,1016.11
2018-02-27T11:05:29.972Z,1016.07
2018-02-27T11:06:29.832Z,1016.11
2018-02-27T11:08:23.566Z,1016.09
2018-02-27T11:09:23.551Z,1016.12
2018-02-27T11:11:17.201Z,1016.02
2018-02-27T11:12:17.182Z,1016.06
2018-02-27T11:14:11.248Z,1016.02
2018-02-27T11:15:11.240Z,1016.03
2018-02-27T11:17:06.165Z,1016.05
2018-02-27T11:18:05.454Z,1016.00
2018-02-27T11:19:59.149Z,1015.95
2018-02-27T11:20:59.119Z,1015.99
2018-02-27T11:22:53.524Z,1016.00
2018-02-27T11:23:52.735Z,1015.94
2018-02-27T11:25:48.171Z,1015.92
2018-02-27T11:26:47.454Z,1015.90
2018-02-27T11:28:41.748Z,1015.88
2018-02-27T11:29:41.736Z,1015.87
2018-02-27T11:31:37.220Z,1015.80
2018-02-27T11:32:36.535Z,1015.82
2018-02-27T11:34:31.437Z,1015.80
2018-02-27T11:35:31.399Z,1015.78
2018-02-27T11:37:25.824Z,1015.76
2018-02-27T11:38:25.170Z,1015.82
2018-02-27T11:40:18.820Z,1015.80
2018-02-27T11:41:18.721Z,1015.81
2018-02-27T11:43:12.423Z,1015.78
2018-02-27T11:44:12.392Z,1015.80
2018-02-27T11:46:07.794Z,1015.80
2018-02-27T11:47:07.791Z,1015.79
2018-02-27T11:49:01.798Z,1015.72
2018-02-27T11:50:01.758Z,1015.68
2018-02-27T11:51:56.637Z,1015.68
2018-02-27T11:52:56.566Z,1015.66
2018-02-27T11:54:52.011Z,1015.64
2018-02-27T11:55:51.443Z,1015.62
2018-02-27T11:57:48.875Z,1015.63
2018-02-27T11:58:45.201Z,1015.56
2018-02-27T12:00:38.761Z,1015.61
2018-02-27T12:01:38.722Z,1015.60
2018-02-27T12:03:32.525Z,1015.61
2018-02-27T12:04:32.457Z,1015.61
2018-02-27T12:06:36.931Z,1015.62
2018-02-27T12:08:50.150Z,1015.58
2018-02-27T12:10:00.165Z,1015.62
2018-02-27T12:11:44.546Z,1015.60
2018-02-27T12:12:43.641Z,1015.56
2018-02-27T12:14:38.446Z,1015.56
2018-02-27T12:15:38.407Z,1015.51
2018-02-27T12:17:33.635Z,1015.47
2018-02-27T12:18:32.138Z,1015.50
2018-02-27T12:20:25.842Z,1015.44
2018-02-27T12:21:25.803Z,1015.45
2018-02-27T12:23:19.540Z,1015.48
2018-02-27T12:24:19.514Z,1015.46
2018-02-27T12:26:14.655Z,1015.45
2018-02-27T12:27:23.640Z,1015.45
2018-02-27T12:29:08.316Z,1015.43
2018-02-27T12:30:08.337Z,1015.48
2018-02-27T12:32:01.916Z,1015.41
2018-02-27T12:33:01.864Z,1015.41
2018-02-27T12:34:55.523Z,1015.44
2018-02-27T12:35:55.487Z,1015.37
2018-02-27T12:37:49.944Z,1015.38
2018-02-27T12:38:49.261Z,1015.42
2018-02-27T12:40:42.853Z,1015.40
2018-02-27T12:41:42.843Z,1015.36
2018-02-27T12:43:36.686Z,1015.31
2018-02-27T12:44:36.614Z,1015.33
2018-02-27T12:46:31.034Z,1015.29
2018-02-27T12:47:30.201Z,1015.26
2018-02-27T12:49:24.013Z,1015.24
2018-02-27T12:50:23.959Z,1015.24
2018-02-27T12:52:17.782Z,1015.23
2018-02-27T12:53:17.729Z,1015.20
2018-02-27T12:55:11.483Z,1015.18
2018-02-27T12:56:11.485Z,1015.16
2018-02-27T12:58:05.678Z,1015.13
2018-02-27T12:59:05.645Z,1015.11
2018-02-27T13:00:59.237Z,1015.08
2018-02-27T13:01:59.228Z,1015.13
2018-02-27T13:03:56.189Z,1015.13
2018-02-27T13:04:52.916Z,1015.09
2018-02-27T13:06:46.712Z,1015.05
2018-02-27T13:07:46.633Z,1015.01
2018-02-27T13:09:40.803Z,1014.97
2018-02-27T13:10:40.784Z,1014.99
2018-02-27T13:12:34.457Z,1014.89
2018-02-27T13:13:34.396Z,1014.86
2018-02-27T13:15:28.826Z,1014.80
2018-02-27T13:16:28.036Z,1014.83
2018-02-27T13:18:22.914Z,1014.79
2018-02-27T13:19:22.844Z,1014.78
2018-02-27T13:21:16.542Z,1014.72
2018-02-27T13:22:16.537Z,1014.77
2018-02-27T13:24:11.466Z,1014.71
2018-02-27T13:25:10.509Z,1014.64
2018-02-27T13:27:05.944Z,1014.68
2018-02-27T13:28:05.658Z,1014.61
2018-02-27T13:29:59.536Z,1014.70
2018-02-27T13:30:59.505Z,1014.68
2018-02-27T13:32:53.198Z,1014.66
2018-02-27T13:33:53.160Z,1014.73
2018-02-27T13:35:46.941Z,1014.58
2018-02-27T13:36:46.906Z,1014.57
2018-02-27T13:38:42.815Z,1014.60
2018-02-27T13:39:42.784Z,1014.65
2018-02-27T13:41:37.180Z,1014.58
2018-02-27T13:42:36.202Z,1014.54
2018-02-27T13:44:29.978Z,1014.46
2018-02-27T13:45:29.934Z,1014.48
2018-02-27T13:47:23.743Z,1014.45
2018-02-27T13:48:23.659Z,1014.45
2018-02-27T13:50:21.316Z,1014.41
2018-02-27T13:51:21.294Z,1014.42
2018-02-27T13:52:21.390Z,1014.45
2018-02-27T13:53:21.270Z,1014.44
2018-02-27T13:54:21.282Z,1014.41
2018-02-27T13:55:21.249Z,1014.36
2018-02-27T13:56:21.239Z,1014.42
2018-02-27T13:57:22.110Z,1014.37
2018-02-27T13:58:21.229Z,1014.40
2018-02-27T13:59:21.205Z,1014.33
2018-02-27T14:00:21.206Z,1014.29
2018-02-27T14:01:21.211Z,1014.33
2018-02-27T14:02:21.185Z,1014.28
2018-02-27T14:03:21.165Z,1014.29
2018-02-27T14:04:21.171Z,1014.24
2018-02-27T14:05:21.158Z,1014.21
2018-02-27T14:06:21.131Z,1014.21
2018-02-27T14:07:21.122Z,1014.19
2018-02-27T14:08:21.117Z,1014.14
2018-02-27T14:09:21.098Z,1014.20
2018-02-27T14:10:21.111Z,1014.16
2018-02-27T14:11:21.087Z,1014.15
2018-02-27T14:12:21.079Z,1014.13
2018-02-27T14:13:21.052Z,1014.13
2018-02-27T14:14:21.073Z,1014.13
2018-02-27T14:15:21.054Z,1014.10
2018-02-27T14:16:21.021Z,1014.10
2018-02-27T14:17:21.039Z,1014.02
2018-02-27T14:18:21.000Z,1014.04
2018-02-27T14:19:20.985Z,1014.04
2018-02-27T14:20:20.971Z,1014.07
2018-02-27T14:21:20.978Z,1014.02
2018-02-27T14:22:20.952Z,1014.00
2018-02-27T14:23:20.938Z,1013.97
2018-02-27T14:24:20.939Z,1014.00
2018-02-27T14:25:20.929Z,1014.00
2018-02-27T14:26:20.910Z,1014.03
2018-02-27T14:27:20.921Z,1014.02
2018-02-27T14:28:20.883Z,1014.00
2018-02-27T14:29:20.870Z,1013.97
2018-02-27T14:30:20.859Z,1013.98
2018-02-27T14:31:20.869Z,1013.97
2018-02-27T14:32:20.844Z,1013.90
2018-02-27T14:33:20.826Z,1013.91
2018-02-27T14:34:20.821Z,1013.92
2018-02-27T14:35:20.818Z,1013.82
2018-02-27T14:36:20.806Z,1013.84
2018-02-27T14:37:20.781Z,1013.86
2018-02-27T14:38:20.774Z,1013.84
2018-02-27T14:39:20.755Z,1013.81
2018-02-27T14:40:20.755Z,1013.74
2018-02-27T14:41:20.743Z,1013.81
2018-02-27T14:42:20.735Z,1013.74
2018-02-27T14:43:20.719Z,1013.77
2018-02-27T14:44:20.719Z,1013.65
2018-02-27T14:45:20.697Z,1013.79
2018-02-27T14:46:20.743Z,1013.76
2018-02-27T14:47:20.671Z,1013.78
2018-02-27T14:48:20.651Z,1013.74
2018-02-27T14:49:20.687Z,1013.75
2018-02-27T14:50:20.631Z,1013.77
2018-02-27T14:51:20.613Z,1013.81
2018-02-27T14:52:20.615Z,1013.76
2018-02-27T14:53:20.604Z,1013.72
2018-02-27T14:54:20.578Z,1013.72
2018-02-27T14:55:20.565Z,1013.73
2018-02-27T14:56:20.555Z,1013.80
2018-02-27T14:57:20.542Z,1013.74
2018-02-27T14:58:20.534Z,1013.68
2018-02-27T14:59:20.515Z,1013.67
2018-02-27T15:00:20.504Z,1013.65
2018-02-27T15:01:20.493Z,1013.69
2018-02-27T15:02:20.481Z,1013.67
2018-02-27T15:03:20.469Z,1013.65
2018-02-27T15:04:20.459Z,1013.63
2018-02-27T15:05:20.453Z,1013.70
2018-02-27T15:06:20.433Z,1013.63
2018-02-27T15:07:20.431Z,1013.58
2018-02-27T15:08:20.407Z,1013.58
2018-02-27T15:09:20.409Z,1013.68
2018-02-27T15:10:20.383Z,1013.63
2018-02-27T15:11:20.373Z,1013.67
2018-02-27T15:12:20.368Z,1013.65
2018-02-27T15:13:20.357Z,1013.59
2018-02-27T15:14:20.343Z,1013.59
2018-02-27T15:15:20.337Z,1013.59
2018-02-27T15:16:20.321Z,1013.63
2018-02-27T15:17:20.293Z,1013.59
2018-02-27T15:18:20.293Z,1013.63
2018-02-27T15:19:20.268Z,1013.60